sensor_id;sensor_type;location;lat;lon;timestamp;temperature;humidity
53272;DHT22;39160;48.580;7.756;2022-12-11T00:02:47;1.30;99.90
53272;DHT22;39160;48.580;7.756;2022-12-11T00:07:38;1.30;99.90
53272;DHT22;39160;48.580;7.756;2022-12-11T00:12:30;1.30;99.90
53272;DHT22;39160;48.580;7.756;2022-12-11T00:17:20;1.30;99.90
53272;DHT22;39160;48.580;7.756;2022-12-11T00:22:11;1.20;99.90
53272;DHT22;39160;48.580;7.756;2022-12-11T00:27:02;1.10;99.90
53272;DHT22;39160;48.580;7.756;2022-12-11T00:31:52;1.10;99.90
53272;DHT22;39160;48.580;7.756;2022-12-11T00:36:43;1.10;99.90
53272;DHT22;39160;48.580;7.756;2022-12-11T00:41:33;1.00;99.90
53272;DHT22;39160;48.580;7.756;2022-12-11T00:46:24;1.00;99.90
53272;DHT22;39160;48.580;7.756;2022-12-11T00:51:16;0.90;99.90
53272;DHT22;39160;48.580;7.756;2022-12-11T00:56:12;0.90;99.90
53272;DHT22;39160;48.580;7.756;2022-12-11T01:01:08;0.80;99.90
53272;DHT22;39160;48.580;7.756;2022-12-11T01:06:00;0.80;99.90
53272;DHT22;39160;48.580;7.756;2022-12-11T01:10:50;0.80;99.90
53272;DHT22;39160;48.580;7.756;2022-12-11T01:15:43;0.70;99.90
53272;DHT22;39160;48.580;7.756;2022-12-11T01:20:34;0.80;99.90
53272;DHT22;39160;48.580;7.756;2022-12-11T01:25:27;0.70;99.90
53272;DHT22;39160;48.580;7.756;2022-12-11T01:30:19;0.60;99.90
53272;DHT22;39160;48.580;7.756;2022-12-11T01:35:11;0.60;99.90
53272;DHT22;39160;48.580;7.756;2022-12-11T01:40:03;0.50;99.90
53272;DHT22;39160;48.580;7.756;2022-12-11T01:45:30;0.40;99.90
53272;DHT22;39160;48.580;7.756;2022-12-11T01:50:22;0.50;99.90
53272;DHT22;39160;48.580;7.756;2022-12-11T01:55:13;0.40;99.90
53272;DHT22;39160;48.580;7.756;2022-12-11T02:00:04;0.30;99.90
53272;DHT22;39160;48.580;7.756;2022-12-11T02:04:55;0.20;99.90
53272;DHT22;39160;48.580;7.756;2022-12-11T02:09:47;0.30;99.90
53272;DHT22;39160;48.580;7.756;2022-12-11T02:14:58;0.10;99.90
53272;DHT22;39160;48.580;7.756;2022-12-11T02:20:07;0.00;99.90
53272;DHT22;39160;48.580;7.756;2022-12-11T02:30:30;-0.20;99.90
53272;DHT22;39160;48.580;7.756;2022-12-11T02:35:30;-0.20;99.90
53272;DHT22;39160;48.580;7.756;2022-12-11T02:40:24;-0.10;99.90
53272;DHT22;39160;48.580;7.756;2022-12-11T02:45:17;-0.20;99.90
53272;DHT22;39160;48.580;7.756;2022-12-11T02:50:11;-0.30;99.90
53272;DHT22;39160;48.580;7.756;2022-12-11T02:55:05;-0.10;99.90
53272;DHT22;39160;48.580;7.756;2022-12-11T02:59:56;-0.10;99.90
53272;DHT22;39160;48.580;7.756;2022-12-11T03:04:47;-0.10;99.90
53272;DHT22;39160;48.580;7.756;2022-12-11T03:09:42;-0.10;99.90
53272;DHT22;39160;48.580;7.756;2022-12-11T03:14:35;-0.10;99.90
53272;DHT22;39160;48.580;7.756;2022-12-11T03:19:36;-0.10;99.90
53272;DHT22;39160;48.580;7.756;2022-12-11T03:24:59;-0.10;99.90
53272;DHT22;39160;48.580;7.756;2022-12-11T03:29:56;-0.10;99.90
53272;DHT22;39160;48.580;7.756;2022-12-11T03:34:56;-0.10;99.90
53272;DHT22;39160;48.580;7.756;2022-12-11T03:39:53;-0.20;99.90
53272;DHT22;39160;48.580;7.756;2022-12-11T03:44:47;-0.10;99.90
53272;DHT22;39160;48.580;7.756;2022-12-11T03:49:41;0.00;99.90
53272;DHT22;39160;48.580;7.756;2022-12-11T03:54:33;0.00;99.90
53272;DHT22;39160;48.580;7.756;2022-12-11T03:59:24;-0.10;99.90
53272;DHT22;39160;48.580;7.756;2022-12-11T04:04:16;0.00;99.90
53272;DHT22;39160;48.580;7.756;2022-12-11T04:09:06;0.20;99.90
53272;DHT22;39160;48.580;7.756;2022-12-11T04:13:57;0.20;99.90
53272;DHT22;39160;48.580;7.756;2022-12-11T04:19:07;0.20;99.90
53272;DHT22;39160;48.580;7.756;2022-12-11T04:24:17;0.20;99.90
53272;DHT22;39160;48.580;7.756;2022-12-11T04:29:08;0.50;99.90
53272;DHT22;39160;48.580;7.756;2022-12-11T04:33:58;0.40;99.90
53272;DHT22;39160;48.580;7.756;2022-12-11T04:38:49;0.40;99.90
53272;DHT22;39160;48.580;7.756;2022-12-11T04:43:40;0.50;99.90
53272;DHT22;39160;48.580;7.756;2022-12-11T04:48:31;0.60;99.90
53272;DHT22;39160;48.580;7.756;2022-12-11T04:53:21;0.70;99.90
53272;DHT22;39160;48.580;7.756;2022-12-11T04:58:12;0.60;99.90
53272;DHT22;39160;48.580;7.756;2022-12-11T05:03:03;0.60;99.90
53272;DHT22;39160;48.580;7.756;2022-12-11T05:07:54;0.60;99.90
53272;DHT22;39160;48.580;7.756;2022-12-11T05:12:44;0.60;99.90
53272;DHT22;39160;48.580;7.756;2022-12-11T05:17:35;0.50;99.90
53272;DHT22;39160;48.580;7.756;2022-12-11T05:22:25;0.40;99.90
53272;DHT22;39160;48.580;7.756;2022-12-11T05:27:16;0.40;99.90
53272;DHT22;39160;48.580;7.756;2022-12-11T05:32:07;0.40;99.90
53272;DHT22;39160;48.580;7.756;2022-12-11T05:36:57;0.40;99.90
53272;DHT22;39160;48.580;7.756;2022-12-11T05:41:48;0.40;99.90
53272;DHT22;39160;48.580;7.756;2022-12-11T05:46:39;0.40;99.90
53272;DHT22;39160;48.580;7.756;2022-12-11T05:51:31;0.50;99.90
53272;DHT22;39160;48.580;7.756;2022-12-11T05:56:28;0.60;99.90
53272;DHT22;39160;48.580;7.756;2022-12-11T06:06:13;0.50;99.90
53272;DHT22;39160;48.580;7.756;2022-12-11T06:11:05;0.50;99.90
53272;DHT22;39160;48.580;7.756;2022-12-11T06:16:01;0.40;99.90
53272;DHT22;39160;48.580;7.756;2022-12-11T06:20:52;0.40;99.90
53272;DHT22;39160;48.580;7.756;2022-12-11T06:25:42;0.40;99.90
53272;DHT22;39160;48.580;7.756;2022-12-11T06:30:33;0.30;99.90
53272;DHT22;39160;48.580;7.756;2022-12-11T06:35:24;0.20;99.90
53272;DHT22;39160;48.580;7.756;2022-12-11T06:40:15;0.30;99.90
53272;DHT22;39160;48.580;7.756;2022-12-11T06:45:06;0.30;99.90
53272;DHT22;39160;48.580;7.756;2022-12-11T06:49:57;0.30;99.90
53272;DHT22;39160;48.580;7.756;2022-12-11T06:54:48;0.30;99.90
53272;DHT22;39160;48.580;7.756;2022-12-11T06:59:38;0.40;99.90
53272;DHT22;39160;48.580;7.756;2022-12-11T07:04:30;0.40;99.90
53272;DHT22;39160;48.580;7.756;2022-12-11T07:09:20;0.10;99.90
53272;DHT22;39160;48.580;7.756;2022-12-11T07:14:12;0.10;99.90
53272;DHT22;39160;48.580;7.756;2022-12-11T07:19:03;0.10;99.90
53272;DHT22;39160;48.580;7.756;2022-12-11T07:23:54;0.30;99.90
53272;DHT22;39160;48.580;7.756;2022-12-11T07:28:44;0.10;99.90
53272;DHT22;39160;48.580;7.756;2022-12-11T07:33:35;0.00;99.90
53272;DHT22;39160;48.580;7.756;2022-12-11T07:38:26;0.10;99.90
53272;DHT22;39160;48.580;7.756;2022-12-11T07:43:17;0.20;99.90
53272;DHT22;39160;48.580;7.756;2022-12-11T07:48:07;0.20;99.90
53272;DHT22;39160;48.580;7.756;2022-12-11T07:52:58;0.50;99.90
53272;DHT22;39160;48.580;7.756;2022-12-11T07:57:48;0.50;99.90
53272;DHT22;39160;48.580;7.756;2022-12-11T08:02:39;0.50;99.90
53272;DHT22;39160;48.580;7.756;2022-12-11T08:07:32;0.50;99.90
53272;DHT22;39160;48.580;7.756;2022-12-11T08:12:22;0.60;99.90
53272;DHT22;39160;48.580;7.756;2022-12-11T08:17:13;0.70;99.90
53272;DHT22;39160;48.580;7.756;2022-12-11T08:22:04;0.90;99.90
53272;DHT22;39160;48.580;7.756;2022-12-11T08:26:55;0.80;99.90
53272;DHT22;39160;48.580;7.756;2022-12-11T08:31:46;0.70;99.90
53272;DHT22;39160;48.580;7.756;2022-12-11T08:36:36;0.90;99.90
53272;DHT22;39160;48.580;7.756;2022-12-11T08:41:28;1.00;99.90
53272;DHT22;39160;48.580;7.756;2022-12-11T08:46:21;1.20;99.90
53272;DHT22;39160;48.580;7.756;2022-12-11T08:51:15;1.00;99.90
53272;DHT22;39160;48.580;7.756;2022-12-11T08:56:10;1.10;99.90
53272;DHT22;39160;48.580;7.756;2022-12-11T09:01:09;1.10;99.90
53272;DHT22;39160;48.580;7.756;2022-12-11T09:06:04;1.20;99.90
53272;DHT22;39160;48.580;7.756;2022-12-11T09:10:55;1.10;99.90
53272;DHT22;39160;48.580;7.756;2022-12-11T09:15:49;1.10;99.90
53272;DHT22;39160;48.580;7.756;2022-12-11T09:20:40;1.10;99.90
53272;DHT22;39160;48.580;7.756;2022-12-11T09:25:33;1.20;99.90
53272;DHT22;39160;48.580;7.756;2022-12-11T09:30:24;1.30;99.90
53272;DHT22;39160;48.580;7.756;2022-12-11T09:35:15;1.40;99.90
53272;DHT22;39160;48.580;7.756;2022-12-11T09:40:08;1.30;99.90
53272;DHT22;39160;48.580;7.756;2022-12-11T09:45:04;1.30;99.90
53272;DHT22;39160;48.580;7.756;2022-12-11T09:55:08;1.30;99.90
53272;DHT22;39160;48.580;7.756;2022-12-11T10:10:24;1.70;99.90
53272;DHT22;39160;48.580;7.756;2022-12-11T10:20:40;1.70;99.90
53272;DHT22;39160;48.580;7.756;2022-12-11T10:25:39;1.90;99.90
53272;DHT22;39160;48.580;7.756;2022-12-11T10:30:36;2.00;99.90
53272;DHT22;39160;48.580;7.756;2022-12-11T10:35:38;2.20;99.90
53272;DHT22;39160;48.580;7.756;2022-12-11T10:40:33;2.30;99.90
53272;DHT22;39160;48.580;7.756;2022-12-11T10:45:25;2.00;99.90
53272;DHT22;39160;48.580;7.756;2022-12-11T10:50:25;1.90;99.90
53272;DHT22;39160;48.580;7.756;2022-12-11T10:55:26;1.90;99.90
53272;DHT22;39160;48.580;7.756;2022-12-11T11:00:39;1.90;99.90
53272;DHT22;39160;48.580;7.756;2022-12-11T11:05:35;1.70;99.90
53272;DHT22;39160;48.580;7.756;2022-12-11T11:10:26;1.60;99.90
53272;DHT22;39160;48.580;7.756;2022-12-11T11:15:27;1.80;99.90
53272;DHT22;39160;48.580;7.756;2022-12-11T11:20:22;1.80;99.90
53272;DHT22;39160;48.580;7.756;2022-12-11T11:25:32;1.80;99.90
53272;DHT22;39160;48.580;7.756;2022-12-11T11:30:25;1.60;99.90
53272;DHT22;39160;48.580;7.756;2022-12-11T11:35:20;1.70;99.90
53272;DHT22;39160;48.580;7.756;2022-12-11T11:40:29;1.60;99.90
53272;DHT22;39160;48.580;7.756;2022-12-11T11:50:37;1.90;99.90
53272;DHT22;39160;48.580;7.756;2022-12-11T12:00:33;2.00;99.90
53272;DHT22;39160;48.580;7.756;2022-12-11T12:10:49;2.40;99.90
53272;DHT22;39160;48.580;7.756;2022-12-11T12:15:50;2.50;99.90
53272;DHT22;39160;48.580;7.756;2022-12-11T12:21:34;2.60;99.90
53272;DHT22;39160;48.580;7.756;2022-12-11T12:26:34;2.60;99.90
53272;DHT22;39160;48.580;7.756;2022-12-11T12:47:02;2.60;99.90
53272;DHT22;39160;48.580;7.756;2022-12-11T12:51:54;2.50;99.90
53272;DHT22;39160;48.580;7.756;2022-12-11T12:56:46;2.60;99.90
53272;DHT22;39160;48.580;7.756;2022-12-11T13:01:38;2.50;99.90
53272;DHT22;39160;48.580;7.756;2022-12-11T13:06:45;2.70;99.90
53272;DHT22;39160;48.580;7.756;2022-12-11T13:11:36;2.70;99.90
53272;DHT22;39160;48.580;7.756;2022-12-11T13:16:41;2.60;99.90
53272;DHT22;39160;48.580;7.756;2022-12-11T13:26:29;2.00;99.90
53272;DHT22;39160;48.580;7.756;2022-12-11T13:41:03;2.10;99.90
53272;DHT22;39160;48.580;7.756;2022-12-11T13:46:10;1.90;99.90
53272;DHT22;39160;48.580;7.756;2022-12-11T13:51:04;1.60;99.90
53272;DHT22;39160;48.580;7.756;2022-12-11T13:56:04;1.60;99.90
53272;DHT22;39160;48.580;7.756;2022-12-11T14:01:11;1.60;99.90
53272;DHT22;39160;48.580;7.756;2022-12-11T14:06:03;1.50;99.90
53272;DHT22;39160;48.580;7.756;2022-12-11T14:10:54;1.40;99.90
53272;DHT22;39160;48.580;7.756;2022-12-11T14:15:45;1.30;99.90
53272;DHT22;39160;48.580;7.756;2022-12-11T14:20:36;1.40;99.90
53272;DHT22;39160;48.580;7.756;2022-12-11T14:25:26;1.40;99.90
53272;DHT22;39160;48.580;7.756;2022-12-11T14:30:23;1.30;99.90
53272;DHT22;39160;48.580;7.756;2022-12-11T14:35:30;1.20;99.90
53272;DHT22;39160;48.580;7.756;2022-12-11T14:40:25;1.30;99.90
53272;DHT22;39160;48.580;7.756;2022-12-11T14:45:33;1.40;99.90
53272;DHT22;39160;48.580;7.756;2022-12-11T14:50:40;1.40;99.90
53272;DHT22;39160;48.580;7.756;2022-12-11T14:55:37;1.40;99.90
53272;DHT22;39160;48.580;7.756;2022-12-11T15:00:30;1.30;99.90
53272;DHT22;39160;48.580;7.756;2022-12-11T15:05:21;1.20;99.90
53272;DHT22;39160;48.580;7.756;2022-12-11T15:10:26;1.30;99.90
53272;DHT22;39160;48.580;7.756;2022-12-11T15:15:18;1.30;99.90
53272;DHT22;39160;48.580;7.756;2022-12-11T15:20:21;1.20;99.90
53272;DHT22;39160;48.580;7.756;2022-12-11T15:25:18;1.10;99.90
53272;DHT22;39160;48.580;7.756;2022-12-11T15:35:25;1.10;99.90
53272;DHT22;39160;48.580;7.756;2022-12-11T15:40:16;1.10;99.90
53272;DHT22;39160;48.580;7.756;2022-12-11T15:45:14;1.10;99.90
53272;DHT22;39160;48.580;7.756;2022-12-11T15:50:19;1.20;99.90
53272;DHT22;39160;48.580;7.756;2022-12-11T15:55:13;1.30;99.90
53272;DHT22;39160;48.580;7.756;2022-12-11T16:00:05;1.40;99.90
53272;DHT22;39160;48.580;7.756;2022-12-11T16:04:56;1.40;99.90
53272;DHT22;39160;48.580;7.756;2022-12-11T16:09:47;1.50;99.90
53272;DHT22;39160;48.580;7.756;2022-12-11T16:14:37;1.30;99.90
53272;DHT22;39160;48.580;7.756;2022-12-11T16:19:28;1.20;99.90
53272;DHT22;39160;48.580;7.756;2022-12-11T16:24:19;1.20;99.90
53272;DHT22;39160;48.580;7.756;2022-12-11T16:29:10;1.10;99.90
53272;DHT22;39160;48.580;7.756;2022-12-11T16:34:01;1.10;99.90
53272;DHT22;39160;48.580;7.756;2022-12-11T16:38:51;1.20;99.90
53272;DHT22;39160;48.580;7.756;2022-12-11T16:43:42;1.00;99.90
53272;DHT22;39160;48.580;7.756;2022-12-11T16:48:32;1.00;99.90
53272;DHT22;39160;48.580;7.756;2022-12-11T16:53:23;1.00;99.90
53272;DHT22;39160;48.580;7.756;2022-12-11T16:58:14;0.80;99.90
53272;DHT22;39160;48.580;7.756;2022-12-11T17:03:09;0.90;99.90
53272;DHT22;39160;48.580;7.756;2022-12-11T17:08:00;1.00;99.90
53272;DHT22;39160;48.580;7.756;2022-12-11T17:12:50;0.90;99.90
53272;DHT22;39160;48.580;7.756;2022-12-11T17:17:41;0.90;99.90
53272;DHT22;39160;48.580;7.756;2022-12-11T17:22:32;0.90;99.90
53272;DHT22;39160;48.580;7.756;2022-12-11T17:27:24;1.00;99.90
53272;DHT22;39160;48.580;7.756;2022-12-11T17:32:14;0.90;99.90
53272;DHT22;39160;48.580;7.756;2022-12-11T17:37:06;0.80;99.90
53272;DHT22;39160;48.580;7.756;2022-12-11T17:41:57;0.90;99.90
53272;DHT22;39160;48.580;7.756;2022-12-11T17:46:48;0.80;99.90
53272;DHT22;39160;48.580;7.756;2022-12-11T17:51:38;0.80;99.90
53272;DHT22;39160;48.580;7.756;2022-12-11T17:56:29;0.70;99.90
53272;DHT22;39160;48.580;7.756;2022-12-11T18:01:22;0.70;99.90
53272;DHT22;39160;48.580;7.756;2022-12-11T18:06:14;0.70;99.90
53272;DHT22;39160;48.580;7.756;2022-12-11T18:11:14;0.80;99.90
53272;DHT22;39160;48.580;7.756;2022-12-11T18:16:14;0.70;99.90
53272;DHT22;39160;48.580;7.756;2022-12-11T18:21:06;0.60;99.90
53272;DHT22;39160;48.580;7.756;2022-12-11T18:25:57;0.50;99.90
53272;DHT22;39160;48.580;7.756;2022-12-11T18:30:47;0.40;99.90
53272;DHT22;39160;48.580;7.756;2022-12-11T18:35:39;0.40;99.90
53272;DHT22;39160;48.580;7.756;2022-12-11T18:40:30;0.50;99.90
53272;DHT22;39160;48.580;7.756;2022-12-11T18:45:21;0.40;99.90
53272;DHT22;39160;48.580;7.756;2022-12-11T18:50:12;0.40;99.90
53272;DHT22;39160;48.580;7.756;2022-12-11T18:55:04;0.50;99.90
53272;DHT22;39160;48.580;7.756;2022-12-11T18:59:55;0.40;99.90
53272;DHT22;39160;48.580;7.756;2022-12-11T19:04:45;0.40;99.90
53272;DHT22;39160;48.580;7.756;2022-12-11T19:09:36;0.30;99.90
53272;DHT22;39160;48.580;7.756;2022-12-11T19:14:26;0.30;99.90
53272;DHT22;39160;48.580;7.756;2022-12-11T19:19:19;0.30;99.90
53272;DHT22;39160;48.580;7.756;2022-12-11T19:24:13;0.40;99.90
53272;DHT22;39160;48.580;7.756;2022-12-11T19:29:04;0.30;99.90
53272;DHT22;39160;48.580;7.756;2022-12-11T19:33:56;0.30;99.90
53272;DHT22;39160;48.580;7.756;2022-12-11T19:38:47;0.00;99.90
53272;DHT22;39160;48.580;7.756;2022-12-11T19:43:38;0.00;99.90
53272;DHT22;39160;48.580;7.756;2022-12-11T19:48:29;0.00;99.90
53272;DHT22;39160;48.580;7.756;2022-12-11T19:53:19;0.10;99.90
53272;DHT22;39160;48.580;7.756;2022-12-11T19:58:12;0.30;99.90
53272;DHT22;39160;48.580;7.756;2022-12-11T20:03:04;0.30;99.90
53272;DHT22;39160;48.580;7.756;2022-12-11T20:07:55;0.20;99.90
53272;DHT22;39160;48.580;7.756;2022-12-11T20:12:47;0.20;99.90
53272;DHT22;39160;48.580;7.756;2022-12-11T20:17:38;0.40;99.90
53272;DHT22;39160;48.580;7.756;2022-12-11T20:22:33;0.20;99.90
53272;DHT22;39160;48.580;7.756;2022-12-11T20:27:25;0.00;99.90
53272;DHT22;39160;48.580;7.756;2022-12-11T20:32:18;-0.10;99.90
53272;DHT22;39160;48.580;7.756;2022-12-11T20:37:08;0.10;99.90
53272;DHT22;39160;48.580;7.756;2022-12-11T20:41:59;0.20;99.90
53272;DHT22;39160;48.580;7.756;2022-12-11T20:46:54;0.20;99.90
53272;DHT22;39160;48.580;7.756;2022-12-11T20:51:44;0.20;99.90
53272;DHT22;39160;48.580;7.756;2022-12-11T20:56:35;0.30;99.90
53272;DHT22;39160;48.580;7.756;2022-12-11T21:01:29;0.40;99.90
53272;DHT22;39160;48.580;7.756;2022-12-11T21:06:24;0.40;99.90
53272;DHT22;39160;48.580;7.756;2022-12-11T21:11:15;0.50;99.90
53272;DHT22;39160;48.580;7.756;2022-12-11T21:16:06;0.60;99.90
53272;DHT22;39160;48.580;7.756;2022-12-11T21:20:57;0.60;99.90
53272;DHT22;39160;48.580;7.756;2022-12-11T21:25:52;0.60;99.90
53272;DHT22;39160;48.580;7.756;2022-12-11T21:31:07;0.60;99.90
53272;DHT22;39160;48.580;7.756;2022-12-11T21:35:59;0.60;99.90
53272;DHT22;39160;48.580;7.756;2022-12-11T21:40:50;0.60;99.90
53272;DHT22;39160;48.580;7.756;2022-12-11T21:45:41;0.60;99.90
53272;DHT22;39160;48.580;7.756;2022-12-11T21:50:32;0.40;99.90
53272;DHT22;39160;48.580;7.756;2022-12-11T21:55:22;0.50;99.90
53272;DHT22;39160;48.580;7.756;2022-12-11T22:00:13;0.40;99.90
53272;DHT22;39160;48.580;7.756;2022-12-11T22:05:05;0.40;99.90
53272;DHT22;39160;48.580;7.756;2022-12-11T22:09:56;0.40;99.90
53272;DHT22;39160;48.580;7.756;2022-12-11T22:14:47;0.40;99.90
53272;DHT22;39160;48.580;7.756;2022-12-11T22:19:38;0.30;99.90
53272;DHT22;39160;48.580;7.756;2022-12-11T22:24:28;0.30;99.90
53272;DHT22;39160;48.580;7.756;2022-12-11T22:29:19;0.30;99.90
53272;DHT22;39160;48.580;7.756;2022-12-11T22:34:10;0.20;99.90
53272;DHT22;39160;48.580;7.756;2022-12-11T22:39:00;0.30;99.90
53272;DHT22;39160;48.580;7.756;2022-12-11T22:43:51;0.40;99.90
53272;DHT22;39160;48.580;7.756;2022-12-11T22:48:42;0.40;99.90
53272;DHT22;39160;48.580;7.756;2022-12-11T22:53:33;0.40;99.90
53272;DHT22;39160;48.580;7.756;2022-12-11T22:58:23;0.40;99.90
53272;DHT22;39160;48.580;7.756;2022-12-11T23:03:14;0.40;99.90
53272;DHT22;39160;48.580;7.756;2022-12-11T23:08:06;0.50;99.90
53272;DHT22;39160;48.580;7.756;2022-12-11T23:12:56;0.40;99.90
53272;DHT22;39160;48.580;7.756;2022-12-11T23:17:47;0.20;99.90
53272;DHT22;39160;48.580;7.756;2022-12-11T23:22:37;0.30;99.90
53272;DHT22;39160;48.580;7.756;2022-12-11T23:27:28;0.50;99.90
53272;DHT22;39160;48.580;7.756;2022-12-11T23:32:19;0.10;99.90
53272;DHT22;39160;48.580;7.756;2022-12-11T23:37:09;0.00;99.90
53272;DHT22;39160;48.580;7.756;2022-12-11T23:42:00;-0.10;99.90
53272;DHT22;39160;48.580;7.756;2022-12-11T23:46:51;-0.20;99.90
53272;DHT22;39160;48.580;7.756;2022-12-11T23:51:41;-0.20;99.90
53272;DHT22;39160;48.580;7.756;2022-12-11T23:56:32;-0.10;99.90
